createdAt,value
2024-05-09T00:01:41.875Z,7.70
2024-05-09T00:04:12.354Z,7.60
2024-05-09T00:06:42.789Z,7.60
2024-05-09T00:09:13.135Z,7.60
2024-05-09T00:11:43.579Z,7.60
2024-05-09T00:14:16.687Z,7.50
2024-05-09T00:16:48.587Z,7.50
2024-05-09T00:19:19.105Z,7.50
2024-05-09T00:21:49.620Z,7.40
2024-05-09T00:24:19.988Z,7.50
2024-05-09T00:26:50.303Z,7.50
2024-05-09T00:29:23.964Z,7.50
2024-05-09T00:31:54.502Z,7.50
2024-05-09T00:34:25.020Z,7.40
2024-05-09T00:36:55.404Z,7.40
2024-05-09T00:39:25.684Z,7.40
2024-05-09T00:41:56.057Z,7.30
2024-05-09T00:44:29.200Z,7.30
2024-05-09T00:46:59.707Z,7.20
2024-05-09T00:49:31.063Z,7.20
2024-05-09T00:52:02.229Z,7.20
2024-05-09T00:54:33.627Z,7.20
2024-05-09T00:57:05.863Z,7.10
2024-05-09T00:59:39.141Z,7.10
2024-05-09T01:02:09.793Z,7.10
2024-05-09T01:04:40.364Z,7.10
2024-05-09T01:07:11.281Z,7.10
2024-05-09T01:09:41.607Z,7.10
2024-05-09T01:12:12.088Z,7.00
2024-05-09T01:14:45.357Z,7.00
2024-05-09T01:17:16.506Z,7.00
2024-05-09T01:19:47.302Z,7.00
2024-05-09T01:22:17.687Z,7.00
2024-05-09T01:24:52.119Z,6.90
2024-05-09T01:27:22.538Z,6.90
2024-05-09T01:29:52.849Z,6.90
2024-05-09T01:32:23.285Z,6.90
2024-05-09T01:34:53.771Z,6.80
2024-05-09T01:37:24.080Z,6.80
2024-05-09T01:39:57.110Z,6.80
2024-05-09T01:42:27.481Z,6.80
2024-05-09T01:44:57.868Z,6.80
2024-05-09T01:47:28.342Z,6.80
2024-05-09T01:49:58.748Z,6.70
2024-05-09T01:52:29.145Z,6.70
2024-05-09T01:55:05.689Z,6.70
2024-05-09T01:57:36.892Z,6.70
2024-05-09T02:00:10.292Z,6.60
2024-05-09T02:02:40.869Z,6.60
2024-05-09T02:05:11.414Z,6.60
2024-05-09T02:07:41.807Z,6.60
2024-05-09T02:10:20.443Z,6.60
2024-05-09T02:12:56.321Z,6.50
2024-05-09T02:15:26.631Z,6.50
2024-05-09T02:17:57.370Z,6.50
2024-05-09T02:20:34.076Z,6.50
2024-05-09T02:23:07.507Z,6.50
2024-05-09T02:25:40.807Z,6.50
2024-05-09T02:28:11.366Z,6.50
2024-05-09T02:30:42.564Z,6.40
2024-05-09T02:33:14.545Z,6.40
2024-05-09T02:35:45.403Z,6.40
2024-05-09T02:38:13.622Z,6.40
2024-05-09T02:40:46.911Z,6.40
2024-05-09T02:43:14.689Z,6.40
2024-05-09T02:45:45.228Z,6.40
2024-05-09T02:48:14.050Z,6.40
2024-05-09T02:50:45.176Z,6.30
2024-05-09T02:53:14.027Z,6.30
2024-05-09T02:55:47.447Z,6.30
2024-05-09T02:58:15.203Z,6.30
2024-05-09T03:00:45.579Z,6.30
2024-05-09T03:03:15.287Z,6.30
2024-05-09T03:05:46.918Z,6.20
2024-05-09T03:08:14.983Z,6.20
2024-05-09T03:10:48.256Z,6.20
2024-05-09T03:13:16.437Z,6.20
2024-05-09T03:15:47.071Z,6.20
2024-05-09T03:18:15.721Z,6.10
2024-05-09T03:20:46.617Z,6.10
2024-05-09T03:23:14.346Z,6.10
2024-05-09T03:25:47.391Z,6.10
2024-05-09T03:28:15.076Z,6.00
2024-05-09T03:30:45.409Z,6.00
2024-05-09T03:33:15.405Z,6.00
2024-05-09T03:35:47.167Z,6.00
2024-05-09T03:38:18.002Z,6.00
2024-05-09T03:40:52.350Z,6.00
2024-05-09T03:43:23.008Z,5.90
2024-05-09T03:45:53.439Z,5.90
2024-05-09T03:48:21.352Z,5.90
2024-05-09T03:50:52.076Z,5.90
2024-05-09T03:53:21.027Z,5.90
2024-05-09T03:55:56.993Z,5.90
2024-05-09T03:58:24.677Z,5.90
2024-05-09T04:00:54.988Z,5.90
2024-05-09T04:03:22.927Z,5.90
2024-05-09T04:05:53.370Z,5.90
2024-05-09T04:08:21.112Z,5.90
2024-05-09T04:10:51.573Z,5.90
2024-05-09T04:13:21.856Z,5.90
2024-05-09T04:15:52.247Z,5.90
2024-05-09T04:18:19.967Z,5.90
2024-05-09T04:20:50.365Z,6.00
2024-05-09T04:23:18.186Z,6.00
2024-05-09T04:25:48.589Z,6.00
2024-05-09T04:28:16.622Z,6.00
2024-05-09T04:30:49.598Z,6.10
2024-05-09T04:33:20.902Z,6.10
2024-05-09T04:35:49.640Z,6.10
2024-05-09T04:38:20.098Z,6.20
2024-05-09T04:40:47.887Z,6.20
2024-05-09T04:43:20.562Z,6.20
2024-05-09T04:45:51.065Z,6.30
2024-05-09T04:48:21.717Z,6.40
2024-05-09T04:50:49.585Z,6.40
2024-05-09T04:53:20.039Z,6.50
2024-05-09T04:55:47.771Z,6.50
2024-05-09T04:58:18.161Z,6.60
2024-05-09T05:00:45.813Z,6.70
2024-05-09T05:03:19.070Z,6.80
2024-05-09T05:05:47.063Z,6.90
2024-05-09T05:08:19.234Z,6.90
2024-05-09T05:10:48.667Z,7.00
2024-05-09T05:13:21.452Z,7.10
2024-05-09T05:15:52.144Z,7.20
2024-05-09T05:18:26.112Z,7.20
2024-05-09T05:20:55.220Z,7.40
2024-05-09T05:23:26.379Z,7.50
2024-05-09T05:25:55.393Z,7.60
2024-05-09T05:28:26.317Z,8.00
2024-05-09T05:30:53.986Z,8.80
2024-05-09T05:33:27.146Z,9.70
2024-05-09T05:35:55.020Z,10.60
2024-05-09T05:38:28.105Z,11.40
2024-05-09T05:40:56.462Z,12.00
2024-05-09T05:43:26.978Z,12.50
2024-05-09T05:45:57.293Z,12.80
2024-05-09T05:48:27.784Z,13.00
2024-05-09T05:50:59.448Z,13.20
2024-05-09T05:53:28.799Z,13.50
2024-05-09T05:55:59.202Z,13.60
2024-05-09T05:58:26.860Z,13.60
2024-05-09T06:00:57.161Z,13.50
2024-05-09T06:03:28.692Z,13.40
2024-05-09T06:05:59.163Z,13.30
2024-05-09T06:08:30.198Z,13.30
2024-05-09T06:11:00.974Z,13.40
2024-05-09T06:13:28.662Z,13.40
2024-05-09T06:15:59.996Z,13.40
2024-05-09T06:18:30.673Z,13.30
2024-05-09T06:21:01.206Z,13.20
2024-05-09T06:23:28.970Z,13.20
2024-05-09T06:25:59.491Z,13.30
2024-05-09T06:28:27.170Z,13.30
2024-05-09T06:30:57.513Z,13.40
2024-05-09T06:33:25.344Z,13.50
2024-05-09T06:35:59.622Z,13.70
2024-05-09T06:38:27.427Z,13.90
2024-05-09T06:40:58.081Z,14.10
2024-05-09T06:43:25.806Z,14.20
2024-05-09T06:45:56.098Z,14.30
2024-05-09T06:48:24.338Z,14.50
2024-05-09T06:50:54.991Z,14.60
2024-05-09T06:53:25.433Z,14.80
2024-05-09T06:55:55.875Z,15.00
2024-05-09T06:58:23.538Z,15.10
2024-05-09T07:00:54.010Z,15.30
2024-05-09T07:03:21.926Z,15.50
2024-05-09T07:05:52.529Z,15.50
2024-05-09T07:08:20.325Z,15.50
2024-05-09T07:10:53.712Z,15.50
2024-05-09T07:13:21.517Z,15.70
2024-05-09T07:15:51.849Z,15.80
2024-05-09T07:18:20.430Z,16.10
2024-05-09T07:20:51.732Z,16.20
2024-05-09T07:23:19.479Z,16.40
2024-05-09T07:25:52.683Z,16.50
2024-05-09T07:28:21.353Z,16.50
2024-05-09T07:30:51.879Z,16.60
2024-05-09T07:33:22.547Z,16.70
2024-05-09T07:35:55.020Z,16.90
2024-05-09T07:38:23.271Z,17.00
2024-05-09T07:40:56.438Z,17.20
2024-05-09T07:43:24.197Z,17.30
2024-05-09T07:45:56.459Z,17.50
2024-05-09T07:50:00.146Z,17.50
2024-05-09T07:53:50.826Z,17.60
2024-05-09T07:56:40.255Z,17.80
2024-05-09T07:59:08.029Z,17.80
2024-05-09T08:01:38.414Z,17.90
2024-05-09T08:04:06.305Z,18.00
2024-05-09T08:06:36.827Z,18.10
2024-05-09T08:09:08.134Z,18.30
2024-05-09T08:11:46.984Z,18.40
2024-05-09T08:14:14.649Z,18.50
2024-05-09T08:16:45.026Z,18.70
2024-05-09T08:19:12.858Z,18.80
2024-05-09T08:21:43.383Z,19.00
2024-05-09T08:24:11.106Z,19.00
2024-05-09T08:26:42.154Z,19.20
2024-05-09T08:29:12.944Z,19.30
2024-05-09T08:31:44.172Z,19.60
2024-05-09T08:34:12.413Z,19.70
2024-05-09T08:36:43.207Z,19.70
2024-05-09T08:39:10.985Z,19.80
2024-05-09T08:41:45.017Z,20.00
2024-05-09T08:44:15.445Z,20.00
2024-05-09T08:46:47.942Z,20.20
2024-05-09T08:49:16.694Z,20.50
2024-05-09T08:51:47.640Z,20.70
2024-05-09T08:54:15.446Z,20.70
2024-05-09T08:56:49.667Z,20.90
2024-05-09T08:59:30.796Z,21.00
2024-05-09T09:02:01.935Z,21.20
2024-05-09T09:04:31.295Z,21.50
2024-05-09T09:07:03.590Z,21.70
2024-05-09T09:09:32.704Z,22.00
2024-05-09T09:12:03.110Z,22.10
2024-05-09T09:14:33.479Z,22.10
2024-05-09T09:17:03.839Z,22.00
2024-05-09T09:19:31.636Z,22.00
2024-05-09T09:22:02.059Z,22.20
2024-05-09T09:24:29.717Z,22.40
2024-05-09T09:27:00.291Z,22.50
2024-05-09T09:29:28.090Z,22.60
2024-05-09T09:32:05.732Z,22.60
2024-05-09T09:34:33.932Z,22.50
2024-05-09T09:37:07.867Z,22.40
2024-05-09T09:39:37.272Z,22.30
2024-05-09T09:42:19.407Z,22.30
2024-05-09T09:44:57.675Z,22.20
2024-05-09T09:47:39.953Z,22.10
2024-05-09T09:50:14.280Z,22.40
2024-05-09T09:52:48.629Z,22.70
2024-05-09T09:55:17.972Z,22.30
2024-05-09T09:57:48.428Z,21.90
2024-05-09T10:00:24.133Z,22.00
2024-05-09T10:03:00.967Z,21.70
2024-05-09T10:05:29.894Z,21.10
2024-05-09T10:08:01.564Z,20.80
2024-05-09T10:10:33.867Z,21.20
2024-05-09T10:13:06.696Z,21.50
2024-05-09T10:15:45.483Z,21.70
2024-05-09T10:18:22.793Z,21.80
2024-05-09T10:20:52.929Z,22.20
2024-05-09T10:23:29.905Z,22.40
2024-05-09T10:25:59.014Z,22.70
2024-05-09T10:28:32.364Z,23.10
2024-05-09T10:31:10.680Z,23.30
2024-05-09T10:33:53.461Z,22.90
2024-05-09T10:36:22.724Z,22.20
2024-05-09T10:38:53.745Z,22.30
2024-05-09T10:41:24.808Z,23.00
2024-05-09T10:44:02.596Z,23.50
2024-05-09T10:46:36.053Z,23.80
2024-05-09T10:49:10.310Z,24.10
2024-05-09T10:51:38.676Z,24.50
2024-05-09T10:54:09.396Z,25.00
2024-05-09T10:56:39.499Z,24.80
2024-05-09T10:59:09.924Z,24.90
2024-05-09T11:01:37.993Z,25.10
2024-05-09T11:04:16.736Z,25.20
2024-05-09T11:06:46.688Z,25.30
2024-05-09T11:09:17.364Z,25.60
2024-05-09T11:11:45.529Z,26.00
2024-05-09T11:14:17.284Z,26.10
2024-05-09T11:16:44.933Z,26.20
2024-05-09T11:19:19.835Z,26.10
2024-05-09T11:21:51.638Z,25.70
2024-05-09T11:24:22.138Z,24.80
2024-05-09T11:26:49.917Z,24.50
2024-05-09T11:29:20.216Z,24.70
2024-05-09T11:31:48.118Z,25.10
2024-05-09T11:34:21.234Z,25.30
2024-05-09T11:36:49.058Z,25.40
2024-05-09T11:39:19.444Z,25.50
2024-05-09T11:41:47.068Z,25.80
2024-05-09T11:44:17.464Z,26.10
2024-05-09T11:46:45.281Z,25.90
2024-05-09T11:49:15.727Z,25.60
2024-05-09T11:51:46.141Z,25.30
2024-05-09T11:54:18.801Z,25.40
2024-05-09T11:56:46.505Z,25.60
2024-05-09T11:59:16.815Z,25.90
2024-05-09T12:01:44.834Z,26.20
2024-05-09T12:04:15.464Z,26.30
2024-05-09T12:06:46.790Z,26.60
2024-05-09T12:09:19.712Z,26.30
2024-05-09T12:11:48.576Z,26.40
2024-05-09T12:14:25.117Z,26.60
2024-05-09T12:16:52.889Z,26.70
2024-05-09T12:19:23.341Z,26.80
2024-05-09T12:21:53.777Z,27.20
2024-05-09T12:24:25.196Z,27.60
2024-05-09T12:26:52.862Z,27.70
2024-05-09T12:29:23.908Z,27.70
2024-05-09T12:31:51.616Z,27.40
2024-05-09T12:34:22.073Z,27.10
2024-05-09T12:36:52.549Z,26.60
2024-05-09T12:39:22.884Z,25.80
2024-05-09T12:41:50.490Z,25.50
2024-05-09T12:44:20.813Z,25.70
2024-05-09T12:46:48.822Z,26.20
2024-05-09T12:49:20.497Z,26.70
2024-05-09T12:51:48.279Z,27.10
2024-05-09T12:54:21.283Z,27.40
2024-05-09T12:56:49.195Z,27.60
2024-05-09T12:59:19.478Z,27.40
2024-05-09T13:01:47.172Z,26.60
2024-05-09T13:04:17.764Z,25.90
2024-05-09T13:06:45.628Z,25.30
2024-05-09T13:09:19.109Z,25.30
2024-05-09T13:11:50.299Z,25.60
2024-05-09T13:14:20.715Z,26.10
2024-05-09T13:16:48.380Z,26.40
2024-05-09T13:19:18.794Z,26.70
2024-05-09T13:21:46.479Z,26.90
2024-05-09T13:24:16.865Z,27.10
2024-05-09T13:26:44.539Z,27.10
2024-05-09T13:29:17.544Z,26.90
2024-05-09T13:31:45.193Z,26.70
2024-05-09T13:34:15.571Z,26.70
2024-05-09T13:36:43.271Z,26.90
2024-05-09T13:39:13.636Z,27.10
2024-05-09T13:41:41.289Z,27.40
2024-05-09T13:44:11.774Z,27.40
2024-05-09T13:46:42.219Z,27.70
2024-05-09T13:49:16.930Z,27.40
2024-05-09T13:51:44.876Z,26.60
2024-05-09T13:54:16.720Z,25.80
2024-05-09T13:56:45.568Z,25.70
2024-05-09T13:59:16.006Z,25.40
2024-05-09T14:01:46.425Z,24.90
2024-05-09T14:04:17.665Z,24.60
2024-05-09T14:06:45.743Z,24.30
2024-05-09T14:09:16.198Z,23.90
2024-05-09T14:11:44.233Z,23.40
2024-05-09T14:14:14.666Z,23.80
2024-05-09T14:16:42.890Z,24.60
2024-05-09T14:19:16.515Z,25.40
2024-05-09T14:21:44.431Z,25.90
2024-05-09T14:24:14.882Z,26.30
2024-05-09T14:26:42.602Z,26.40
2024-05-09T14:29:13.073Z,25.80
2024-05-09T14:31:40.873Z,25.20
2024-05-09T14:34:11.671Z,25.10
2024-05-09T14:36:51.551Z,25.40
2024-05-09T14:39:19.225Z,25.90
2024-05-09T14:41:49.725Z,26.40
2024-05-09T14:44:17.487Z,26.60
2024-05-09T14:46:47.967Z,26.90
2024-05-09T14:49:15.855Z,26.90
2024-05-09T14:51:51.018Z,26.90
2024-05-09T14:54:18.743Z,26.80
2024-05-09T14:56:49.060Z,26.50
2024-05-09T14:59:16.810Z,25.70
2024-05-09T15:01:47.339Z,25.40
2024-05-09T15:04:15.225Z,25.60
2024-05-09T15:06:45.867Z,26.00
2024-05-09T15:09:16.270Z,26.10
2024-05-09T15:11:47.572Z,26.20
2024-05-09T15:14:16.009Z,26.40
2024-05-09T15:16:46.375Z,26.70
2024-05-09T15:19:14.269Z,27.10
2024-05-09T15:21:44.806Z,27.50
2024-05-09T15:24:12.469Z,27.40
2024-05-09T15:26:45.664Z,27.30
2024-05-09T15:29:13.399Z,27.00
2024-05-09T15:31:44.468Z,26.90
2024-05-09T15:34:12.160Z,26.90
2024-05-09T15:36:43.394Z,26.70
2024-05-09T15:39:11.297Z,26.70
2024-05-09T15:41:41.612Z,26.70
2024-05-09T15:44:12.006Z,26.70
2024-05-09T15:46:42.323Z,26.60
2024-05-09T15:49:10.172Z,26.50
2024-05-09T15:51:40.626Z,26.40
2024-05-09T15:54:08.315Z,26.30
2024-05-09T15:56:38.874Z,26.20
2024-05-09T15:59:07.013Z,26.00
2024-05-09T16:01:40.167Z,26.10
2024-05-09T16:04:07.974Z,26.20
2024-05-09T16:06:38.496Z,26.00
2024-05-09T16:09:06.642Z,25.90
2024-05-09T16:11:37.399Z,25.90
2024-05-09T16:14:05.187Z,25.90
2024-05-09T16:16:35.857Z,25.90
2024-05-09T16:19:06.446Z,26.10
2024-05-09T16:21:36.898Z,26.20
2024-05-09T16:24:05.193Z,26.20
2024-05-09T16:26:35.708Z,26.20
2024-05-09T16:29:04.494Z,26.10
2024-05-09T16:31:34.864Z,25.60
2024-05-09T16:34:02.907Z,24.80
2024-05-09T16:36:36.193Z,24.30
2024-05-09T16:39:04.020Z,23.90
2024-05-09T16:41:34.480Z,24.00
2024-05-09T16:44:03.257Z,24.30
2024-05-09T16:46:33.997Z,24.40
2024-05-09T16:49:09.588Z,24.20
2024-05-09T16:51:44.089Z,24.20
2024-05-09T16:54:13.392Z,24.20
2024-05-09T16:56:43.778Z,24.20
2024-05-09T16:59:11.586Z,24.30
2024-05-09T17:01:41.944Z,24.30
2024-05-09T17:04:09.858Z,24.50
2024-05-09T17:06:40.405Z,24.60
2024-05-09T17:09:12.048Z,24.40
2024-05-09T17:11:45.844Z,24.30
2024-05-09T17:14:16.387Z,24.20
2024-05-09T17:16:46.779Z,24.10
2024-05-09T17:19:17.369Z,24.00
2024-05-09T17:21:45.447Z,23.80
2024-05-09T17:24:18.543Z,23.70
2024-05-09T17:26:46.364Z,23.70
2024-05-09T17:29:16.767Z,23.60
2024-05-09T17:31:44.460Z,23.40
2024-05-09T17:34:14.969Z,23.30
2024-05-09T17:36:42.988Z,23.10
2024-05-09T17:39:13.693Z,22.80
2024-05-09T17:41:44.505Z,22.60
2024-05-09T17:44:14.985Z,22.30
2024-05-09T17:46:43.175Z,22.10
2024-05-09T17:49:13.544Z,21.80
2024-05-09T17:51:51.402Z,21.70
2024-05-09T17:54:21.781Z,21.50
2024-05-09T17:56:52.154Z,21.30
2024-05-09T17:59:22.532Z,21.10
2024-05-09T18:01:50.344Z,21.00
2024-05-09T18:04:21.100Z,20.80
2024-05-09T18:06:48.906Z,20.70
2024-05-09T18:09:19.346Z,20.60
2024-05-09T18:11:47.119Z,20.40
2024-05-09T18:14:20.187Z,20.20
2024-05-09T18:16:47.941Z,20.00
2024-05-09T18:19:18.506Z,19.90
2024-05-09T18:21:46.401Z,19.70
2024-05-09T18:24:16.848Z,19.50
2024-05-09T18:26:44.566Z,19.40
2024-05-09T18:29:16.128Z,19.20
2024-05-09T18:31:47.466Z,19.00
2024-05-09T18:34:18.034Z,18.70
2024-05-09T18:36:46.747Z,18.40
2024-05-09T18:39:17.320Z,18.10
2024-05-09T18:41:45.029Z,17.80
2024-05-09T18:44:15.360Z,17.50
2024-05-09T18:46:43.031Z,17.30
2024-05-09T18:49:16.344Z,17.10
2024-05-09T18:51:44.185Z,16.90
2024-05-09T18:54:16.204Z,16.60
2024-05-09T18:56:44.235Z,16.30
2024-05-09T18:59:15.886Z,16.10
2024-05-09T19:01:46.823Z,15.80
2024-05-09T19:04:21.249Z,15.50
2024-05-09T19:06:49.511Z,15.20
2024-05-09T19:09:22.569Z,15.10
2024-05-09T19:11:50.278Z,14.90
2024-05-09T19:14:20.583Z,14.70
2024-05-09T19:16:48.250Z,14.60
2024-05-09T19:19:22.056Z,14.30
2024-05-09T19:21:49.956Z,14.20
2024-05-09T19:24:20.496Z,14.10
2024-05-09T19:26:48.208Z,13.90
2024-05-09T19:29:18.807Z,13.80
2024-05-09T19:31:46.604Z,13.70
2024-05-09T19:34:17.386Z,13.60
2024-05-09T19:36:47.924Z,13.60
2024-05-09T19:39:18.359Z,13.40
2024-05-09T19:41:45.990Z,13.30
2024-05-09T19:44:16.341Z,13.20
2024-05-09T19:46:44.620Z,13.10
2024-05-09T19:49:15.120Z,13.00
2024-05-09T19:51:42.905Z,13.00
2024-05-09T19:54:15.884Z,12.90
2024-05-09T19:56:45.296Z,12.90
2024-05-09T19:59:15.827Z,12.80
2024-05-09T20:01:43.891Z,12.70
2024-05-09T20:04:14.597Z,12.60
2024-05-09T20:06:42.415Z,12.60
2024-05-09T20:09:15.409Z,12.50
2024-05-09T20:11:43.321Z,12.50
2024-05-09T20:14:14.953Z,12.40
2024-05-09T20:16:44.794Z,12.40
2024-05-09T20:19:15.337Z,12.30
2024-05-09T20:21:43.449Z,12.20
2024-05-09T20:24:16.536Z,12.20
2024-05-09T20:26:44.197Z,12.10
2024-05-09T20:29:14.518Z,12.10
2024-05-09T20:31:42.202Z,12.00
2024-05-09T20:34:12.676Z,12.00
2024-05-09T20:36:40.524Z,11.90
2024-05-09T20:39:10.974Z,11.90
2024-05-09T20:41:43.987Z,11.80
2024-05-09T20:44:14.306Z,11.70
2024-05-09T20:46:41.941Z,11.70
2024-05-09T20:49:12.477Z,11.70
2024-05-09T20:51:40.277Z,11.60
2024-05-09T20:54:10.662Z,11.60
2024-05-09T20:56:38.310Z,11.60
2024-05-09T20:59:11.313Z,11.60
2024-05-09T21:01:39.009Z,11.60
2024-05-09T21:04:09.570Z,11.50
2024-05-09T21:06:37.430Z,11.60
2024-05-09T21:09:07.917Z,11.50
2024-05-09T21:11:35.590Z,11.50
2024-05-09T21:14:05.975Z,11.40
2024-05-09T21:16:36.519Z,11.40
2024-05-09T21:19:07.051Z,11.30
2024-05-09T21:21:39.487Z,11.30
2024-05-09T21:24:10.223Z,11.20
2024-05-09T21:26:37.931Z,11.20
2024-05-09T21:29:08.260Z,11.10
2024-05-09T21:31:38.698Z,11.10
2024-05-09T21:34:09.310Z,11.00
2024-05-09T21:36:37.280Z,11.10
2024-05-09T21:39:07.577Z,11.00
2024-05-09T21:41:35.244Z,11.00
2024-05-09T21:44:05.576Z,10.90
2024-05-09T21:46:33.418Z,10.80
2024-05-09T21:49:06.600Z,10.80
2024-05-09T21:51:34.367Z,10.80
2024-05-09T21:54:04.808Z,10.80
2024-05-09T21:56:32.580Z,10.70
2024-05-09T21:59:02.871Z,10.70
2024-05-09T22:01:30.612Z,10.60
2024-05-09T22:04:01.199Z,10.60
2024-05-09T22:06:31.828Z,10.60
2024-05-09T22:09:05.157Z,10.50
2024-05-09T22:11:32.948Z,10.50
2024-05-09T22:14:03.286Z,10.50
2024-05-09T22:16:31.002Z,10.40
2024-05-09T22:19:01.454Z,10.40
2024-05-09T22:21:31.942Z,10.30
2024-05-09T22:24:03.095Z,10.30
2024-05-09T22:26:30.781Z,10.20
2024-05-09T22:29:01.128Z,10.20
2024-05-09T22:31:28.923Z,10.20
2024-05-09T22:33:59.492Z,10.10
2024-05-09T22:36:27.220Z,10.10
2024-05-09T22:39:00.256Z,10.00
2024-05-09T22:41:27.990Z,10.00
2024-05-09T22:43:58.679Z,10.00
2024-05-09T22:46:26.541Z,10.00
2024-05-09T22:48:57.101Z,9.90
2024-05-09T22:51:24.885Z,9.90
2024-05-09T22:53:55.196Z,9.80
2024-05-09T22:56:29.674Z,9.80
2024-05-09T22:59:00.223Z,9.80
2024-05-09T23:01:28.122Z,9.80
2024-05-09T23:03:58.691Z,9.80
2024-05-09T23:06:26.425Z,9.80
2024-05-09T23:08:56.777Z,9.80
2024-05-09T23:11:24.564Z,9.70
2024-05-09T23:13:57.591Z,9.70
2024-05-09T23:16:25.303Z,9.60
2024-05-09T23:18:56.054Z,9.60
2024-05-09T23:21:23.970Z,9.60
2024-05-09T23:23:54.580Z,9.60
2024-05-09T23:26:22.361Z,9.50
2024-05-09T23:28:52.675Z,9.50
2024-05-09T23:31:23.056Z,9.50
2024-05-09T23:33:55.147Z,9.40
2024-05-09T23:36:23.018Z,9.40
2024-05-09T23:38:53.299Z,9.30
2024-05-09T23:41:21.019Z,9.30
2024-05-09T23:43:51.376Z,9.30
2024-05-09T23:46:19.126Z,9.20
2024-05-09T23:48:52.302Z,9.20
2024-05-09T23:51:20.042Z,9.10
2024-05-09T23:53:50.398Z,9.10
2024-05-09T23:56:18.684Z,9.00
2024-05-09T23:58:49.833Z,9.00
